sensor_id;sensor_type;location;lat;lon;timestamp;pressure;altitude;pressure_sealevel;temperature;humidity
52511;BME280;63918;51.700;17.998;2022-12-24T00:00:56;98781.95;;;6.65;100.00
52511;BME280;63918;51.700;17.998;2022-12-24T00:03:23;98783.16;;;6.67;100.00
52511;BME280;63918;51.700;17.998;2022-12-24T00:05:50;98777.88;;;6.63;100.00
52511;BME280;63918;51.700;17.998;2022-12-24T00:08:17;98780.23;;;6.64;100.00
52511;BME280;63918;51.700;17.998;2022-12-24T00:10:43;98776.13;;;6.66;100.00
52511;BME280;63918;51.700;17.998;2022-12-24T00:13:10;98769.58;;;6.62;100.00
52511;BME280;63918;51.700;17.998;2022-12-24T00:15:36;98775.36;;;6.65;100.00
52511;BME280;63918;51.700;17.998;2022-12-24T00:18:03;98774.23;;;6.58;100.00
52511;BME280;63918;51.700;17.998;2022-12-24T00:20:30;98775.00;;;6.65;100.00
52511;BME280;63918;51.700;17.998;2022-12-24T00:22:56;98772.73;;;6.69;100.00
52511;BME280;63918;51.700;17.998;2022-12-24T00:25:22;98777.70;;;6.64;100.00
52511;BME280;63918;51.700;17.998;2022-12-24T00:27:49;98781.48;;;6.59;100.00
52511;BME280;63918;51.700;17.998;2022-12-24T00:30:16;98781.66;;;6.62;100.00
52511;BME280;63918;51.700;17.998;2022-12-24T00:32:42;98790.02;;;6.72;100.00
52511;BME280;63918;51.700;17.998;2022-12-24T00:35:09;98793.27;;;6.75;100.00
52511;BME280;63918;51.700;17.998;2022-12-24T00:37:35;98795.19;;;6.85;100.00
52511;BME280;63918;51.700;17.998;2022-12-24T00:40:02;98795.80;;;6.93;100.00
52511;BME280;63918;51.700;17.998;2022-12-24T00:42:29;98800.20;;;7.00;100.00
52511;BME280;63918;51.700;17.998;2022-12-24T00:44:55;98797.77;;;7.04;100.00
52511;BME280;63918;51.700;17.998;2022-12-24T00:47:22;98797.80;;;7.12;100.00
52511;BME280;63918;51.700;17.998;2022-12-24T00:49:48;98796.68;;;7.08;100.00
52511;BME280;63918;51.700;17.998;2022-12-24T00:52:15;98799.11;;;7.12;100.00
52511;BME280;63918;51.700;17.998;2022-12-24T00:54:41;98795.27;;;7.16;100.00
52511;BME280;63918;51.700;17.998;2022-12-24T00:57:08;98798.70;;;7.14;100.00
52511;BME280;63918;51.700;17.998;2022-12-24T00:59:34;98799.06;;;7.24;100.00
52511;BME280;63918;51.700;17.998;2022-12-24T01:02:01;98800.01;;;7.18;100.00
52511;BME280;63918;51.700;17.998;2022-12-24T01:04:27;98796.61;;;7.21;100.00
52511;BME280;63918;51.700;17.998;2022-12-24T01:07:12;98792.75;;;7.27;100.00
52511;BME280;63918;51.700;17.998;2022-12-24T01:09:39;98798.64;;;7.34;100.00
52511;BME280;63918;51.700;17.998;2022-12-24T01:12:05;98800.79;;;7.35;100.00
52511;BME280;63918;51.700;17.998;2022-12-24T01:14:32;98803.36;;;7.44;100.00
52511;BME280;63918;51.700;17.998;2022-12-24T01:16:58;98806.05;;;7.40;100.00
52511;BME280;63918;51.700;17.998;2022-12-24T01:19:25;98801.82;;;7.35;100.00
52511;BME280;63918;51.700;17.998;2022-12-24T01:21:51;98804.05;;;7.30;100.00
52511;BME280;63918;51.700;17.998;2022-12-24T01:24:19;98797.35;;;7.30;100.00
52511;BME280;63918;51.700;17.998;2022-12-24T01:26:45;98795.96;;;7.28;100.00
52511;BME280;63918;51.700;17.998;2022-12-24T01:29:12;98787.11;;;7.10;100.00
52511;BME280;63918;51.700;17.998;2022-12-24T01:31:38;98786.52;;;7.06;100.00
52511;BME280;63918;51.700;17.998;2022-12-24T01:34:05;98784.69;;;7.08;100.00
52511;BME280;63918;51.700;17.998;2022-12-24T01:36:31;98778.88;;;7.19;100.00
52511;BME280;63918;51.700;17.998;2022-12-24T01:38:58;98780.39;;;7.26;100.00
52511;BME280;63918;51.700;17.998;2022-12-24T01:41:24;98772.16;;;7.04;100.00
52511;BME280;63918;51.700;17.998;2022-12-24T01:44:31;98771.67;;;6.96;100.00
52511;BME280;63918;51.700;17.998;2022-12-24T01:47:26;98779.44;;;7.01;100.00
52511;BME280;63918;51.700;17.998;2022-12-24T01:50:03;98777.23;;;7.09;100.00
52511;BME280;63918;51.700;17.998;2022-12-24T01:52:35;98780.67;;;7.14;100.00
52511;BME280;63918;51.700;17.998;2022-12-24T01:55:12;98775.17;;;7.09;100.00
52511;BME280;63918;51.700;17.998;2022-12-24T01:57:52;98774.61;;;7.26;100.00
52511;BME280;63918;51.700;17.998;2022-12-24T02:00:20;98773.78;;;7.20;100.00
52511;BME280;63918;51.700;17.998;2022-12-24T02:02:48;98779.01;;;7.05;100.00
52511;BME280;63918;51.700;17.998;2022-12-24T02:05:38;98779.85;;;7.04;100.00
52511;BME280;63918;51.700;17.998;2022-12-24T02:08:07;98774.55;;;6.88;100.00
52511;BME280;63918;51.700;17.998;2022-12-24T02:10:34;98771.66;;;6.68;100.00
52511;BME280;63918;51.700;17.998;2022-12-24T02:13:02;98771.08;;;6.64;100.00
52511;BME280;63918;51.700;17.998;2022-12-24T02:15:57;98766.52;;;6.57;100.00
52511;BME280;63918;51.700;17.998;2022-12-24T02:18:46;98767.56;;;6.60;100.00
52511;BME280;63918;51.700;17.998;2022-12-24T02:24:19;98765.83;;;6.57;100.00
52511;BME280;63918;51.700;17.998;2022-12-24T02:27:03;98767.48;;;6.53;100.00
52511;BME280;63918;51.700;17.998;2022-12-24T02:36:14;98775.29;;;6.63;100.00
52511;BME280;63918;51.700;17.998;2022-12-24T02:38:50;98769.59;;;6.66;100.00
52511;BME280;63918;51.700;17.998;2022-12-24T02:41:23;98770.52;;;6.60;100.00
52511;BME280;63918;51.700;17.998;2022-12-24T02:43:53;98764.17;;;6.48;100.00
52511;BME280;63918;51.700;17.998;2022-12-24T02:46:25;98765.67;;;6.46;100.00
52511;BME280;63918;51.700;17.998;2022-12-24T02:48:52;98762.59;;;6.42;100.00
52511;BME280;63918;51.700;17.998;2022-12-24T02:51:22;98770.10;;;6.58;100.00
52511;BME280;63918;51.700;17.998;2022-12-24T02:53:50;98772.56;;;6.74;100.00
52511;BME280;63918;51.700;17.998;2022-12-24T02:56:48;98773.92;;;6.77;100.00
52511;BME280;63918;51.700;17.998;2022-12-24T03:07:22;98777.02;;;6.71;100.00
52511;BME280;63918;51.700;17.998;2022-12-24T03:12:44;98774.16;;;6.67;100.00
52511;BME280;63918;51.700;17.998;2022-12-24T03:15:14;98776.57;;;6.60;100.00
52511;BME280;63918;51.700;17.998;2022-12-24T03:17:44;98778.17;;;6.56;100.00
52511;BME280;63918;51.700;17.998;2022-12-24T03:20:15;98783.30;;;6.47;100.00
52511;BME280;63918;51.700;17.998;2022-12-24T03:22:44;98781.49;;;6.44;100.00
52511;BME280;63918;51.700;17.998;2022-12-24T03:25:10;98782.42;;;6.53;100.00
52511;BME280;63918;51.700;17.998;2022-12-24T03:27:37;98777.05;;;6.51;100.00
52511;BME280;63918;51.700;17.998;2022-12-24T03:30:09;98773.05;;;6.55;100.00
52511;BME280;63918;51.700;17.998;2022-12-24T03:32:37;98767.88;;;6.51;100.00
52511;BME280;63918;51.700;17.998;2022-12-24T03:35:04;98768.59;;;6.45;100.00
52511;BME280;63918;51.700;17.998;2022-12-24T03:37:31;98770.41;;;6.37;100.00
52511;BME280;63918;51.700;17.998;2022-12-24T03:39:57;98771.06;;;6.46;100.00
52511;BME280;63918;51.700;17.998;2022-12-24T03:42:24;98775.17;;;6.55;100.00
52511;BME280;63918;51.700;17.998;2022-12-24T03:44:50;98770.05;;;6.54;100.00
52511;BME280;63918;51.700;17.998;2022-12-24T03:47:17;98770.79;;;6.56;100.00
52511;BME280;63918;51.700;17.998;2022-12-24T03:49:43;98774.86;;;6.63;100.00
52511;BME280;63918;51.700;17.998;2022-12-24T03:52:10;98778.00;;;6.66;100.00
52511;BME280;63918;51.700;17.998;2022-12-24T03:54:36;98779.70;;;6.59;100.00
52511;BME280;63918;51.700;17.998;2022-12-24T03:57:03;98779.54;;;6.63;100.00
52511;BME280;63918;51.700;17.998;2022-12-24T03:59:30;98776.11;;;6.62;100.00
52511;BME280;63918;51.700;17.998;2022-12-24T04:01:56;98775.84;;;6.57;100.00
52511;BME280;63918;51.700;17.998;2022-12-24T04:04:23;98775.77;;;6.55;100.00
52511;BME280;63918;51.700;17.998;2022-12-24T04:06:49;98772.12;;;6.61;100.00
52511;BME280;63918;51.700;17.998;2022-12-24T04:09:16;98768.52;;;6.57;100.00
52511;BME280;63918;51.700;17.998;2022-12-24T04:11:42;98774.95;;;6.55;100.00
52511;BME280;63918;51.700;17.998;2022-12-24T04:14:09;98772.88;;;6.47;100.00
52511;BME280;63918;51.700;17.998;2022-12-24T04:16:35;98776.55;;;6.43;100.00
52511;BME280;63918;51.700;17.998;2022-12-24T04:19:02;98770.27;;;6.40;100.00
52511;BME280;63918;51.700;17.998;2022-12-24T04:21:28;98771.45;;;6.36;100.00
52511;BME280;63918;51.700;17.998;2022-12-24T04:23:55;98774.91;;;6.39;100.00
52511;BME280;63918;51.700;17.998;2022-12-24T04:26:21;98773.23;;;6.68;100.00
52511;BME280;63918;51.700;17.998;2022-12-24T04:28:48;98775.05;;;6.69;100.00
52511;BME280;63918;51.700;17.998;2022-12-24T04:31:16;98770.60;;;6.63;100.00
52511;BME280;63918;51.700;17.998;2022-12-24T04:33:43;98770.77;;;6.62;100.00
52511;BME280;63918;51.700;17.998;2022-12-24T04:36:13;98772.63;;;6.68;100.00
52511;BME280;63918;51.700;17.998;2022-12-24T04:38:39;98769.35;;;6.76;100.00
52511;BME280;63918;51.700;17.998;2022-12-24T04:41:09;98769.47;;;6.80;100.00
52511;BME280;63918;51.700;17.998;2022-12-24T04:43:37;98771.73;;;6.57;100.00
52511;BME280;63918;51.700;17.998;2022-12-24T04:46:05;98769.29;;;6.56;100.00
52511;BME280;63918;51.700;17.998;2022-12-24T04:48:33;98771.45;;;6.32;100.00
52511;BME280;63918;51.700;17.998;2022-12-24T04:51:01;98772.71;;;6.24;100.00
52511;BME280;63918;51.700;17.998;2022-12-24T04:53:29;98775.52;;;6.19;100.00
52511;BME280;63918;51.700;17.998;2022-12-24T04:55:56;98775.20;;;6.12;100.00
52511;BME280;63918;51.700;17.998;2022-12-24T04:58:23;98772.16;;;6.15;100.00
52511;BME280;63918;51.700;17.998;2022-12-24T05:00:50;98776.47;;;6.05;100.00
52511;BME280;63918;51.700;17.998;2022-12-24T05:03:16;98779.27;;;6.15;100.00
52511;BME280;63918;51.700;17.998;2022-12-24T05:05:43;98784.54;;;6.17;100.00
52511;BME280;63918;51.700;17.998;2022-12-24T05:08:09;98785.77;;;6.24;100.00
52511;BME280;63918;51.700;17.998;2022-12-24T05:10:36;98786.91;;;6.33;100.00
52511;BME280;63918;51.700;17.998;2022-12-24T05:13:03;98782.24;;;6.45;100.00
52511;BME280;63918;51.700;17.998;2022-12-24T05:15:29;98785.81;;;6.34;100.00
52511;BME280;63918;51.700;17.998;2022-12-24T05:17:56;98786.55;;;6.31;100.00
52511;BME280;63918;51.700;17.998;2022-12-24T05:20:23;98795.80;;;6.28;100.00
52511;BME280;63918;51.700;17.998;2022-12-24T05:22:50;98799.63;;;6.33;100.00
52511;BME280;63918;51.700;17.998;2022-12-24T05:25:37;98805.57;;;6.33;100.00
52511;BME280;63918;51.700;17.998;2022-12-24T05:28:23;98805.08;;;6.28;100.00
52511;BME280;63918;51.700;17.998;2022-12-24T05:30:50;98801.17;;;6.34;100.00
52511;BME280;63918;51.700;17.998;2022-12-24T05:33:17;98800.74;;;6.35;100.00
52511;BME280;63918;51.700;17.998;2022-12-24T05:35:43;98799.00;;;6.26;100.00
52511;BME280;63918;51.700;17.998;2022-12-24T05:38:10;98800.14;;;6.36;100.00
52511;BME280;63918;51.700;17.998;2022-12-24T05:40:36;98801.41;;;6.37;100.00
52511;BME280;63918;51.700;17.998;2022-12-24T05:43:03;98800.23;;;6.27;100.00
52511;BME280;63918;51.700;17.998;2022-12-24T05:45:29;98809.40;;;6.39;100.00
52511;BME280;63918;51.700;17.998;2022-12-24T05:47:56;98815.10;;;6.35;100.00
52511;BME280;63918;51.700;17.998;2022-12-24T05:50:22;98819.41;;;6.34;100.00
52511;BME280;63918;51.700;17.998;2022-12-24T05:52:49;98822.66;;;6.28;100.00
52511;BME280;63918;51.700;17.998;2022-12-24T05:55:15;98823.39;;;6.36;100.00
52511;BME280;63918;51.700;17.998;2022-12-24T05:57:42;98829.67;;;6.38;100.00
52511;BME280;63918;51.700;17.998;2022-12-24T06:00:09;98831.53;;;6.41;100.00
52511;BME280;63918;51.700;17.998;2022-12-24T06:02:35;98832.36;;;6.56;100.00
52511;BME280;63918;51.700;17.998;2022-12-24T06:05:02;98835.69;;;6.70;100.00
52511;BME280;63918;51.700;17.998;2022-12-24T06:07:29;98841.56;;;6.76;100.00
52511;BME280;63918;51.700;17.998;2022-12-24T06:09:55;98847.55;;;6.62;100.00
52511;BME280;63918;51.700;17.998;2022-12-24T06:12:21;98853.52;;;6.48;100.00
52511;BME280;63918;51.700;17.998;2022-12-24T06:14:48;98855.48;;;6.51;100.00
52511;BME280;63918;51.700;17.998;2022-12-24T06:17:14;98856.00;;;6.53;100.00
52511;BME280;63918;51.700;17.998;2022-12-24T06:19:41;98859.91;;;6.51;100.00
52511;BME280;63918;51.700;17.998;2022-12-24T06:22:08;98859.99;;;6.47;100.00
52511;BME280;63918;51.700;17.998;2022-12-24T06:24:35;98857.15;;;6.41;100.00
52511;BME280;63918;51.700;17.998;2022-12-24T06:27:01;98861.06;;;6.44;100.00
52511;BME280;63918;51.700;17.998;2022-12-24T06:29:28;98865.30;;;6.52;100.00
52511;BME280;63918;51.700;17.998;2022-12-24T06:31:54;98866.50;;;6.56;100.00
52511;BME280;63918;51.700;17.998;2022-12-24T06:34:21;98870.27;;;6.61;100.00
52511;BME280;63918;51.700;17.998;2022-12-24T06:36:48;98876.53;;;6.61;100.00
52511;BME280;63918;51.700;17.998;2022-12-24T06:39:14;98879.89;;;6.50;100.00
52511;BME280;63918;51.700;17.998;2022-12-24T06:41:40;98881.77;;;6.49;100.00
52511;BME280;63918;51.700;17.998;2022-12-24T06:44:07;98881.15;;;6.58;100.00
52511;BME280;63918;51.700;17.998;2022-12-24T06:46:34;98888.54;;;6.68;100.00
52511;BME280;63918;51.700;17.998;2022-12-24T06:49:00;98888.98;;;6.83;100.00
52511;BME280;63918;51.700;17.998;2022-12-24T06:51:27;98891.28;;;6.63;100.00
52511;BME280;63918;51.700;17.998;2022-12-24T06:53:53;98894.47;;;6.74;100.00
52511;BME280;63918;51.700;17.998;2022-12-24T06:56:20;98897.69;;;6.90;100.00
52511;BME280;63918;51.700;17.998;2022-12-24T06:58:47;98897.88;;;7.07;100.00
52511;BME280;63918;51.700;17.998;2022-12-24T07:01:15;98899.51;;;6.92;100.00
52511;BME280;63918;51.700;17.998;2022-12-24T07:03:44;98902.52;;;7.04;100.00
52511;BME280;63918;51.700;17.998;2022-12-24T07:06:20;98907.23;;;7.10;100.00
52511;BME280;63918;51.700;17.998;2022-12-24T07:08:49;98909.06;;;6.72;100.00
52511;BME280;63918;51.700;17.998;2022-12-24T07:11:16;98914.49;;;6.75;100.00
52511;BME280;63918;51.700;17.998;2022-12-24T07:13:42;98914.57;;;6.55;100.00
52511;BME280;63918;51.700;17.998;2022-12-24T07:16:09;98921.92;;;6.49;100.00
52511;BME280;63918;51.700;17.998;2022-12-24T07:18:36;98926.49;;;6.45;100.00
52511;BME280;63918;51.700;17.998;2022-12-24T07:21:04;98926.41;;;6.41;100.00
52511;BME280;63918;51.700;17.998;2022-12-24T07:23:30;98933.33;;;6.28;100.00
52511;BME280;63918;51.700;17.998;2022-12-24T07:26:01;98936.92;;;6.35;100.00
52511;BME280;63918;51.700;17.998;2022-12-24T07:28:29;98939.99;;;6.16;100.00
52511;BME280;63918;51.700;17.998;2022-12-24T07:30:56;98952.25;;;6.12;100.00
52511;BME280;63918;51.700;17.998;2022-12-24T07:33:24;98961.48;;;6.19;100.00
52511;BME280;63918;51.700;17.998;2022-12-24T07:36:05;98969.95;;;6.18;100.00
52511;BME280;63918;51.700;17.998;2022-12-24T07:38:32;98975.16;;;6.14;100.00
52511;BME280;63918;51.700;17.998;2022-12-24T07:40:59;98981.73;;;6.05;100.00
52511;BME280;63918;51.700;17.998;2022-12-24T07:43:26;98982.06;;;5.98;100.00
52511;BME280;63918;51.700;17.998;2022-12-24T07:45:55;98988.09;;;6.09;100.00
52511;BME280;63918;51.700;17.998;2022-12-24T07:48:22;98989.54;;;6.09;100.00
52511;BME280;63918;51.700;17.998;2022-12-24T07:50:49;98991.02;;;5.97;100.00
52511;BME280;63918;51.700;17.998;2022-12-24T07:53:16;98985.98;;;6.01;100.00
52511;BME280;63918;51.700;17.998;2022-12-24T07:55:43;98988.41;;;5.98;100.00
52511;BME280;63918;51.700;17.998;2022-12-24T07:58:10;98996.58;;;5.94;100.00
52511;BME280;63918;51.700;17.998;2022-12-24T08:00:37;99003.63;;;5.95;100.00
52511;BME280;63918;51.700;17.998;2022-12-24T08:03:04;99014.44;;;6.00;100.00
52511;BME280;63918;51.700;17.998;2022-12-24T08:05:36;99017.95;;;6.01;100.00
52511;BME280;63918;51.700;17.998;2022-12-24T08:08:03;99024.08;;;6.09;100.00
52511;BME280;63918;51.700;17.998;2022-12-24T08:10:29;99027.58;;;6.37;100.00
52511;BME280;63918;51.700;17.998;2022-12-24T08:12:56;99022.70;;;6.41;100.00
52511;BME280;63918;51.700;17.998;2022-12-24T08:15:22;99031.31;;;6.43;100.00
52511;BME280;63918;51.700;17.998;2022-12-24T08:17:49;99037.63;;;6.36;100.00
52511;BME280;63918;51.700;17.998;2022-12-24T08:20:15;99044.14;;;6.36;100.00
52511;BME280;63918;51.700;17.998;2022-12-24T08:22:42;99051.92;;;6.70;100.00
52511;BME280;63918;51.700;17.998;2022-12-24T08:25:09;99055.64;;;6.93;100.00
52511;BME280;63918;51.700;17.998;2022-12-24T08:27:36;99060.40;;;6.62;100.00
52511;BME280;63918;51.700;17.998;2022-12-24T08:30:03;99066.12;;;6.64;100.00
52511;BME280;63918;51.700;17.998;2022-12-24T08:32:30;99072.79;;;6.74;100.00
52511;BME280;63918;51.700;17.998;2022-12-24T08:34:57;99080.13;;;6.96;100.00
52511;BME280;63918;51.700;17.998;2022-12-24T08:37:24;99084.86;;;6.91;100.00
52511;BME280;63918;51.700;17.998;2022-12-24T08:39:50;99088.87;;;6.93;100.00
52511;BME280;63918;51.700;17.998;2022-12-24T08:42:17;99091.94;;;6.90;100.00
52511;BME280;63918;51.700;17.998;2022-12-24T08:44:43;99094.81;;;6.86;100.00
52511;BME280;63918;51.700;17.998;2022-12-24T08:47:10;99104.90;;;7.01;100.00
52511;BME280;63918;51.700;17.998;2022-12-24T08:49:37;99103.51;;;7.00;100.00
52511;BME280;63918;51.700;17.998;2022-12-24T08:52:05;99108.00;;;6.56;100.00
52511;BME280;63918;51.700;17.998;2022-12-24T08:54:32;99114.77;;;6.69;100.00
52511;BME280;63918;51.700;17.998;2022-12-24T08:56:58;99119.73;;;6.75;100.00
52511;BME280;63918;51.700;17.998;2022-12-24T08:59:25;99121.90;;;6.49;100.00
52511;BME280;63918;51.700;17.998;2022-12-24T09:01:51;99127.19;;;6.39;100.00
52511;BME280;63918;51.700;17.998;2022-12-24T09:04:18;99135.59;;;6.59;100.00
52511;BME280;63918;51.700;17.998;2022-12-24T09:06:45;99137.89;;;6.34;100.00
52511;BME280;63918;51.700;17.998;2022-12-24T09:09:12;99134.89;;;6.42;100.00
52511;BME280;63918;51.700;17.998;2022-12-24T09:11:39;99146.75;;;6.44;100.00
52511;BME280;63918;51.700;17.998;2022-12-24T09:14:05;99149.95;;;6.40;100.00
52511;BME280;63918;51.700;17.998;2022-12-24T09:16:32;99151.45;;;6.18;100.00
52511;BME280;63918;51.700;17.998;2022-12-24T09:18:58;99154.12;;;6.29;100.00
52511;BME280;63918;51.700;17.998;2022-12-24T09:21:25;99157.05;;;6.35;100.00
52511;BME280;63918;51.700;17.998;2022-12-24T09:23:52;99160.45;;;6.54;100.00
52511;BME280;63918;51.700;17.998;2022-12-24T09:26:23;99167.83;;;6.46;100.00
52511;BME280;63918;51.700;17.998;2022-12-24T09:28:51;99176.07;;;6.37;100.00
52511;BME280;63918;51.700;17.998;2022-12-24T09:31:18;99181.13;;;6.28;100.00
52511;BME280;63918;51.700;17.998;2022-12-24T09:33:46;99177.61;;;6.41;100.00
52511;BME280;63918;51.700;17.998;2022-12-24T09:36:13;99178.80;;;6.30;100.00
52511;BME280;63918;51.700;17.998;2022-12-24T09:38:40;99184.91;;;6.10;100.00
52511;BME280;63918;51.700;17.998;2022-12-24T09:44:41;99186.61;;;6.15;100.00
52511;BME280;63918;51.700;17.998;2022-12-24T09:47:25;99190.80;;;6.36;100.00
52511;BME280;63918;51.700;17.998;2022-12-24T09:49:56;99193.08;;;6.33;100.00
52511;BME280;63918;51.700;17.998;2022-12-24T09:52:38;99193.96;;;6.39;100.00
52511;BME280;63918;51.700;17.998;2022-12-24T09:55:19;99194.98;;;6.17;100.00
52511;BME280;63918;51.700;17.998;2022-12-24T09:57:49;99202.72;;;6.23;100.00
52511;BME280;63918;51.700;17.998;2022-12-24T10:00:22;99208.86;;;6.50;100.00
52511;BME280;63918;51.700;17.998;2022-12-24T10:02:49;99213.55;;;6.73;100.00
52511;BME280;63918;51.700;17.998;2022-12-24T10:05:18;99219.30;;;6.97;100.00
52511;BME280;63918;51.700;17.998;2022-12-24T10:15:55;99227.80;;;6.73;100.00
52511;BME280;63918;51.700;17.998;2022-12-24T10:19:02;99236.23;;;6.82;100.00
52511;BME280;63918;51.700;17.998;2022-12-24T10:24:19;99261.15;;;6.86;100.00
52511;BME280;63918;51.700;17.998;2022-12-24T10:29:51;99275.27;;;6.65;100.00
52511;BME280;63918;51.700;17.998;2022-12-24T10:32:25;99280.46;;;6.78;100.00
52511;BME280;63918;51.700;17.998;2022-12-24T10:35:03;99285.89;;;6.81;100.00
52511;BME280;63918;51.700;17.998;2022-12-24T10:37:31;99293.92;;;7.06;100.00
52511;BME280;63918;51.700;17.998;2022-12-24T10:39:59;99289.95;;;6.78;100.00
52511;BME280;63918;51.700;17.998;2022-12-24T10:42:45;99290.39;;;6.67;100.00
52511;BME280;63918;51.700;17.998;2022-12-24T10:45:16;99296.52;;;6.56;100.00
52511;BME280;63918;51.700;17.998;2022-12-24T10:47:44;99302.29;;;6.60;100.00
52511;BME280;63918;51.700;17.998;2022-12-24T10:50:37;99302.66;;;6.44;100.00
52511;BME280;63918;51.700;17.998;2022-12-24T10:53:26;99306.91;;;6.48;100.00
52511;BME280;63918;51.700;17.998;2022-12-24T10:56:01;99312.98;;;6.36;100.00
52511;BME280;63918;51.700;17.998;2022-12-24T10:58:29;99314.30;;;6.49;100.00
52511;BME280;63918;51.700;17.998;2022-12-24T11:00:55;99317.75;;;6.49;100.00
52511;BME280;63918;51.700;17.998;2022-12-24T11:03:28;99324.77;;;6.68;100.00
52511;BME280;63918;51.700;17.998;2022-12-24T11:06:13;99324.35;;;7.01;100.00
52511;BME280;63918;51.700;17.998;2022-12-24T11:08:42;99329.73;;;6.97;100.00
52511;BME280;63918;51.700;17.998;2022-12-24T11:11:16;99332.23;;;6.74;100.00
52511;BME280;63918;51.700;17.998;2022-12-24T11:13:45;99331.98;;;6.55;100.00
52511;BME280;63918;51.700;17.998;2022-12-24T11:18:53;99338.12;;;6.58;100.00
52511;BME280;63918;51.700;17.998;2022-12-24T11:24:01;99346.94;;;7.10;100.00
52511;BME280;63918;51.700;17.998;2022-12-24T11:26:30;99349.65;;;7.18;100.00
52511;BME280;63918;51.700;17.998;2022-12-24T11:29:23;99351.04;;;7.11;100.00
52511;BME280;63918;51.700;17.998;2022-12-24T11:31:51;99353.06;;;6.92;100.00
52511;BME280;63918;51.700;17.998;2022-12-24T11:34:24;99350.73;;;7.06;100.00
52511;BME280;63918;51.700;17.998;2022-12-24T11:36:52;99353.48;;;7.21;100.00
52511;BME280;63918;51.700;17.998;2022-12-24T11:39:24;99358.34;;;7.42;100.00
52511;BME280;63918;51.700;17.998;2022-12-24T11:41:52;99363.41;;;7.43;100.00
52511;BME280;63918;51.700;17.998;2022-12-24T11:44:25;99360.40;;;7.17;100.00
52511;BME280;63918;51.700;17.998;2022-12-24T11:46:53;99363.58;;;7.08;100.00
52511;BME280;63918;51.700;17.998;2022-12-24T11:49:30;99374.11;;;7.52;100.00
52511;BME280;63918;51.700;17.998;2022-12-24T11:54:44;99381.82;;;7.00;100.00
52511;BME280;63918;51.700;17.998;2022-12-24T11:57:15;99385.02;;;7.19;100.00
52511;BME280;63918;51.700;17.998;2022-12-24T11:59:46;99386.48;;;7.20;100.00
52511;BME280;63918;51.700;17.998;2022-12-24T12:02:22;99388.71;;;7.17;100.00
52511;BME280;63918;51.700;17.998;2022-12-24T12:04:56;99388.97;;;6.71;100.00
52511;BME280;63918;51.700;17.998;2022-12-24T12:07:27;99394.96;;;6.89;100.00
52511;BME280;63918;51.700;17.998;2022-12-24T12:09:58;99398.55;;;7.14;100.00
52511;BME280;63918;51.700;17.998;2022-12-24T12:12:32;99394.20;;;7.18;100.00
52511;BME280;63918;51.700;17.998;2022-12-24T12:15:22;99394.77;;;6.98;100.00
52511;BME280;63918;51.700;17.998;2022-12-24T12:17:55;99399.02;;;6.92;100.00
52511;BME280;63918;51.700;17.998;2022-12-24T12:20:30;99406.16;;;6.85;100.00
52511;BME280;63918;51.700;17.998;2022-12-24T12:25:45;99415.04;;;7.76;100.00
52511;BME280;63918;51.700;17.998;2022-12-24T12:28:32;99415.80;;;7.67;100.00
52511;BME280;63918;51.700;17.998;2022-12-24T12:33:47;99432.91;;;7.60;100.00
52511;BME280;63918;51.700;17.998;2022-12-24T12:36:18;99436.77;;;7.01;100.00
52511;BME280;63918;51.700;17.998;2022-12-24T12:38:46;99435.45;;;6.66;100.00
52511;BME280;63918;51.700;17.998;2022-12-24T12:41:20;99438.09;;;6.72;100.00
52511;BME280;63918;51.700;17.998;2022-12-24T12:50:02;99454.17;;;6.73;100.00
52511;BME280;63918;51.700;17.998;2022-12-24T12:55:35;99466.71;;;7.27;100.00
52511;BME280;63918;51.700;17.998;2022-12-24T12:58:14;99473.85;;;7.09;100.00
52511;BME280;63918;51.700;17.998;2022-12-24T13:00:45;99470.23;;;6.80;100.00
52511;BME280;63918;51.700;17.998;2022-12-24T13:20:30;99499.54;;;5.90;100.00
52511;BME280;63918;51.700;17.998;2022-12-24T13:23:09;99508.61;;;5.84;100.00
52511;BME280;63918;51.700;17.998;2022-12-24T13:25:40;99511.41;;;5.93;100.00
52511;BME280;63918;51.700;17.998;2022-12-24T13:28:31;99507.42;;;6.23;100.00
52511;BME280;63918;51.700;17.998;2022-12-24T13:36:07;99505.77;;;6.66;100.00
52511;BME280;63918;51.700;17.998;2022-12-24T13:38:54;99509.23;;;6.49;100.00
52511;BME280;63918;51.700;17.998;2022-12-24T13:47:16;99524.06;;;6.43;100.00
52511;BME280;63918;51.700;17.998;2022-12-24T13:49:51;99524.56;;;6.76;100.00
52511;BME280;63918;51.700;17.998;2022-12-24T13:52:22;99528.88;;;7.36;100.00
52511;BME280;63918;51.700;17.998;2022-12-24T13:57:32;99534.25;;;7.30;100.00
52511;BME280;63918;51.700;17.998;2022-12-24T14:08:34;99536.38;;;7.73;100.00
52511;BME280;63918;51.700;17.998;2022-12-24T14:16:12;99541.85;;;6.35;100.00
52511;BME280;63918;51.700;17.998;2022-12-24T14:19:11;99547.86;;;6.44;100.00
52511;BME280;63918;51.700;17.998;2022-12-24T14:21:36;99546.58;;;6.85;100.00
52511;BME280;63918;51.700;17.998;2022-12-24T14:24:06;99547.11;;;7.31;100.00
52511;BME280;63918;51.700;17.998;2022-12-24T14:27:30;99547.73;;;7.40;100.00
52511;BME280;63918;51.700;17.998;2022-12-24T14:29:31;99552.52;;;7.78;100.00
52511;BME280;63918;51.700;17.998;2022-12-24T14:31:59;99556.08;;;8.21;100.00
52511;BME280;63918;51.700;17.998;2022-12-24T14:34:29;99559.77;;;8.27;100.00
52511;BME280;63918;51.700;17.998;2022-12-24T14:36:57;99565.13;;;8.11;100.00
52511;BME280;63918;51.700;17.998;2022-12-24T14:39:31;99563.85;;;7.19;100.00
52511;BME280;63918;51.700;17.998;2022-12-24T14:45:13;99572.42;;;7.12;100.00
52511;BME280;63918;51.700;17.998;2022-12-24T14:50:42;99577.52;;;6.87;100.00
52511;BME280;63918;51.700;17.998;2022-12-24T14:53:29;99579.72;;;6.63;100.00
52511;BME280;63918;51.700;17.998;2022-12-24T14:56:12;99581.55;;;6.81;100.00